sensor_id;sensor_type;location;lat;lon;timestamp;temperature;humidity
7214;DHT22;3648;50.614;13.830;2022-10-23T00:00:23;8.90;1.00
7214;DHT22;3648;50.614;13.830;2022-10-23T00:02:53;8.90;1.00
7214;DHT22;3648;50.614;13.830;2022-10-23T00:05:21;8.90;1.00
7214;DHT22;3648;50.614;13.830;2022-10-23T00:07:49;8.90;1.00
7214;DHT22;3648;50.614;13.830;2022-10-23T00:10:18;8.90;1.00
7214;DHT22;3648;50.614;13.830;2022-10-23T00:12:45;8.90;1.00
7214;DHT22;3648;50.614;13.830;2022-10-23T00:15:15;8.90;1.00
7214;DHT22;3648;50.614;13.830;2022-10-23T00:17:43;8.90;1.00
7214;DHT22;3648;50.614;13.830;2022-10-23T00:20:11;8.90;1.00
7214;DHT22;3648;50.614;13.830;2022-10-23T00:22:38;8.90;1.00
7214;DHT22;3648;50.614;13.830;2022-10-23T00:25:06;8.90;1.00
7214;DHT22;3648;50.614;13.830;2022-10-23T00:27:34;9.00;1.00
7214;DHT22;3648;50.614;13.830;2022-10-23T00:30:02;8.90;1.00
7214;DHT22;3648;50.614;13.830;2022-10-23T00:32:30;8.90;1.00
7214;DHT22;3648;50.614;13.830;2022-10-23T00:34:57;8.90;1.00
7214;DHT22;3648;50.614;13.830;2022-10-23T00:37:24;8.90;1.00
7214;DHT22;3648;50.614;13.830;2022-10-23T00:39:51;9.00;1.00
7214;DHT22;3648;50.614;13.830;2022-10-23T00:42:19;9.00;1.00
7214;DHT22;3648;50.614;13.830;2022-10-23T00:45:13;9.00;1.00
7214;DHT22;3648;50.614;13.830;2022-10-23T00:47:42;9.00;1.00
7214;DHT22;3648;50.614;13.830;2022-10-23T00:50:09;8.90;1.00
7214;DHT22;3648;50.614;13.830;2022-10-23T00:52:40;8.90;1.00
7214;DHT22;3648;50.614;13.830;2022-10-23T00:55:08;8.90;1.00
7214;DHT22;3648;50.614;13.830;2022-10-23T00:57:37;8.90;1.00
7214;DHT22;3648;50.614;13.830;2022-10-23T01:00:07;8.90;1.00
7214;DHT22;3648;50.614;13.830;2022-10-23T01:02:34;8.90;1.00
7214;DHT22;3648;50.614;13.830;2022-10-23T01:05:03;9.00;1.00
7214;DHT22;3648;50.614;13.830;2022-10-23T01:07:35;9.00;1.00
7214;DHT22;3648;50.614;13.830;2022-10-23T01:10:08;8.90;1.00
7214;DHT22;3648;50.614;13.830;2022-10-23T01:12:42;8.80;1.00
7214;DHT22;3648;50.614;13.830;2022-10-23T01:15:14;8.80;1.00
7214;DHT22;3648;50.614;13.830;2022-10-23T01:17:47;8.80;1.00
7214;DHT22;3648;50.614;13.830;2022-10-23T01:20:28;8.70;1.00
7214;DHT22;3648;50.614;13.830;2022-10-23T01:23:34;8.70;1.00
7214;DHT22;3648;50.614;13.830;2022-10-23T01:26:20;8.60;1.00
7214;DHT22;3648;50.614;13.830;2022-10-23T01:28:54;8.60;1.00
7214;DHT22;3648;50.614;13.830;2022-10-23T01:31:29;8.50;1.00
7214;DHT22;3648;50.614;13.830;2022-10-23T01:34:04;8.50;1.00
7214;DHT22;3648;50.614;13.830;2022-10-23T01:36:33;8.50;1.00
7214;DHT22;3648;50.614;13.830;2022-10-23T01:39:07;8.50;1.00
7214;DHT22;3648;50.614;13.830;2022-10-23T01:41:38;8.50;1.00
7214;DHT22;3648;50.614;13.830;2022-10-23T01:44:10;8.50;1.00
7214;DHT22;3648;50.614;13.830;2022-10-23T01:46:41;8.50;1.00
7214;DHT22;3648;50.614;13.830;2022-10-23T01:49:12;8.50;1.00
7214;DHT22;3648;50.614;13.830;2022-10-23T01:51:41;8.50;1.00
7214;DHT22;3648;50.614;13.830;2022-10-23T01:54:12;8.50;1.00
7214;DHT22;3648;50.614;13.830;2022-10-23T01:56:42;8.50;1.00
7214;DHT22;3648;50.614;13.830;2022-10-23T01:59:15;8.50;1.00
7214;DHT22;3648;50.614;13.830;2022-10-23T02:01:46;8.50;1.00
7214;DHT22;3648;50.614;13.830;2022-10-23T02:04:18;8.50;1.00
7214;DHT22;3648;50.614;13.830;2022-10-23T02:06:47;8.50;1.00
7214;DHT22;3648;50.614;13.830;2022-10-23T02:09:14;8.50;1.00
7214;DHT22;3648;50.614;13.830;2022-10-23T02:11:47;8.50;1.00
7214;DHT22;3648;50.614;13.830;2022-10-23T02:14:22;8.50;1.00
7214;DHT22;3648;50.614;13.830;2022-10-23T02:16:51;8.50;1.00
7214;DHT22;3648;50.614;13.830;2022-10-23T02:19:25;8.50;1.00
7214;DHT22;3648;50.614;13.830;2022-10-23T02:21:58;8.50;1.00
7214;DHT22;3648;50.614;13.830;2022-10-23T02:24:33;8.50;1.00
7214;DHT22;3648;50.614;13.830;2022-10-23T02:27:02;8.50;1.00
7214;DHT22;3648;50.614;13.830;2022-10-23T02:29:36;8.50;1.00
7214;DHT22;3648;50.614;13.830;2022-10-23T02:32:06;8.50;1.00
7214;DHT22;3648;50.614;13.830;2022-10-23T02:34:35;8.50;1.00
7214;DHT22;3648;50.614;13.830;2022-10-23T02:37:03;8.50;1.00
7214;DHT22;3648;50.614;13.830;2022-10-23T02:39:30;8.50;1.00
7214;DHT22;3648;50.614;13.830;2022-10-23T02:42:02;8.50;1.00
7214;DHT22;3648;50.614;13.830;2022-10-23T02:44:45;8.50;1.00
7214;DHT22;3648;50.614;13.830;2022-10-23T02:47:26;8.40;1.00
7214;DHT22;3648;50.614;13.830;2022-10-23T02:50:04;8.50;1.00
7214;DHT22;3648;50.614;13.830;2022-10-23T02:52:38;8.50;1.00
7214;DHT22;3648;50.614;13.830;2022-10-23T02:55:20;8.50;1.00
7214;DHT22;3648;50.614;13.830;2022-10-23T02:57:53;8.40;1.00
7214;DHT22;3648;50.614;13.830;2022-10-23T03:00:24;8.40;1.00
7214;DHT22;3648;50.614;13.830;2022-10-23T03:02:55;8.40;1.00
7214;DHT22;3648;50.614;13.830;2022-10-23T03:05:25;8.40;1.00
7214;DHT22;3648;50.614;13.830;2022-10-23T03:07:53;8.40;1.00
7214;DHT22;3648;50.614;13.830;2022-10-23T03:10:21;8.40;1.00
7214;DHT22;3648;50.614;13.830;2022-10-23T03:12:48;8.40;1.00
7214;DHT22;3648;50.614;13.830;2022-10-23T03:15:15;8.40;1.00
7214;DHT22;3648;50.614;13.830;2022-10-23T03:17:43;8.40;1.00
7214;DHT22;3648;50.614;13.830;2022-10-23T03:20:10;8.40;1.00
7214;DHT22;3648;50.614;13.830;2022-10-23T03:22:38;8.50;1.00
7214;DHT22;3648;50.614;13.830;2022-10-23T03:25:05;8.50;1.00
7214;DHT22;3648;50.614;13.830;2022-10-23T03:27:33;8.50;1.00
7214;DHT22;3648;50.614;13.830;2022-10-23T03:30:00;8.50;1.00
7214;DHT22;3648;50.614;13.830;2022-10-23T03:32:27;8.40;1.00
7214;DHT22;3648;50.614;13.830;2022-10-23T03:34:55;8.40;1.00
7214;DHT22;3648;50.614;13.830;2022-10-23T03:37:22;8.40;1.00
7214;DHT22;3648;50.614;13.830;2022-10-23T03:39:49;8.40;1.00
7214;DHT22;3648;50.614;13.830;2022-10-23T03:42:16;8.40;1.00
7214;DHT22;3648;50.614;13.830;2022-10-23T03:44:43;8.40;1.00
7214;DHT22;3648;50.614;13.830;2022-10-23T03:47:10;8.40;1.00
7214;DHT22;3648;50.614;13.830;2022-10-23T03:49:37;8.40;1.00
7214;DHT22;3648;50.614;13.830;2022-10-23T03:52:06;8.40;1.00
7214;DHT22;3648;50.614;13.830;2022-10-23T03:54:34;8.30;1.00
7214;DHT22;3648;50.614;13.830;2022-10-23T03:57:01;8.40;1.00
7214;DHT22;3648;50.614;13.830;2022-10-23T03:59:28;8.40;1.00
7214;DHT22;3648;50.614;13.830;2022-10-23T04:01:55;8.40;1.00
7214;DHT22;3648;50.614;13.830;2022-10-23T04:04:22;8.50;1.00
7214;DHT22;3648;50.614;13.830;2022-10-23T04:06:49;8.50;1.00
7214;DHT22;3648;50.614;13.830;2022-10-23T04:09:17;8.50;1.00
7214;DHT22;3648;50.614;13.830;2022-10-23T04:11:44;8.50;1.00
7214;DHT22;3648;50.614;13.830;2022-10-23T04:14:11;8.50;1.00
7214;DHT22;3648;50.614;13.830;2022-10-23T04:16:39;8.60;1.00
7214;DHT22;3648;50.614;13.830;2022-10-23T04:19:06;8.60;1.00
7214;DHT22;3648;50.614;13.830;2022-10-23T04:21:33;8.60;1.00
7214;DHT22;3648;50.614;13.830;2022-10-23T04:24:00;8.70;1.00
7214;DHT22;3648;50.614;13.830;2022-10-23T04:26:28;8.60;1.00
7214;DHT22;3648;50.614;13.830;2022-10-23T04:28:55;8.70;1.00
7214;DHT22;3648;50.614;13.830;2022-10-23T04:31:22;8.70;1.00
7214;DHT22;3648;50.614;13.830;2022-10-23T04:33:49;8.70;1.00
7214;DHT22;3648;50.614;13.830;2022-10-23T04:36:16;8.70;1.00
7214;DHT22;3648;50.614;13.830;2022-10-23T04:38:43;8.70;1.00
7214;DHT22;3648;50.614;13.830;2022-10-23T04:41:09;8.70;1.00
7214;DHT22;3648;50.614;13.830;2022-10-23T04:43:38;8.80;1.00
7214;DHT22;3648;50.614;13.830;2022-10-23T04:46:06;8.80;1.00
7214;DHT22;3648;50.614;13.830;2022-10-23T04:48:33;8.80;1.00
7214;DHT22;3648;50.614;13.830;2022-10-23T04:51:03;8.80;1.00
7214;DHT22;3648;50.614;13.830;2022-10-23T04:53:30;8.80;1.00
7214;DHT22;3648;50.614;13.830;2022-10-23T04:55:58;8.90;1.00
7214;DHT22;3648;50.614;13.830;2022-10-23T04:58:26;8.90;1.00
7214;DHT22;3648;50.614;13.830;2022-10-23T05:00:55;8.90;1.00
7214;DHT22;3648;50.614;13.830;2022-10-23T05:03:23;8.90;1.00
7214;DHT22;3648;50.614;13.830;2022-10-23T05:05:52;8.90;1.00
7214;DHT22;3648;50.614;13.830;2022-10-23T05:08:20;8.90;1.00
7214;DHT22;3648;50.614;13.830;2022-10-23T05:10:47;8.90;1.00
7214;DHT22;3648;50.614;13.830;2022-10-23T05:13:15;8.90;1.00
7214;DHT22;3648;50.614;13.830;2022-10-23T05:15:44;8.90;1.00
7214;DHT22;3648;50.614;13.830;2022-10-23T05:18:16;9.00;1.00
7214;DHT22;3648;50.614;13.830;2022-10-23T05:20:45;9.00;1.00
7214;DHT22;3648;50.614;13.830;2022-10-23T05:23:14;9.00;1.00
7214;DHT22;3648;50.614;13.830;2022-10-23T05:25:42;9.00;1.00
7214;DHT22;3648;50.614;13.830;2022-10-23T05:28:09;9.00;1.00
7214;DHT22;3648;50.614;13.830;2022-10-23T05:30:36;9.00;1.00
7214;DHT22;3648;50.614;13.830;2022-10-23T05:33:04;9.00;1.00
7214;DHT22;3648;50.614;13.830;2022-10-23T05:35:32;9.00;1.00
7214;DHT22;3648;50.614;13.830;2022-10-23T05:38:01;9.00;1.00
7214;DHT22;3648;50.614;13.830;2022-10-23T05:40:28;9.00;1.00
7214;DHT22;3648;50.614;13.830;2022-10-23T05:42:55;9.00;1.00
7214;DHT22;3648;50.614;13.830;2022-10-23T05:45:22;9.00;1.00
7214;DHT22;3648;50.614;13.830;2022-10-23T05:47:48;9.00;1.00
7214;DHT22;3648;50.614;13.830;2022-10-23T05:50:16;9.00;1.00
7214;DHT22;3648;50.614;13.830;2022-10-23T05:52:46;9.00;1.00
7214;DHT22;3648;50.614;13.830;2022-10-23T05:55:14;9.10;1.00
7214;DHT22;3648;50.614;13.830;2022-10-23T05:57:41;9.10;1.00
7214;DHT22;3648;50.614;13.830;2022-10-23T06:00:09;9.10;1.00
7214;DHT22;3648;50.614;13.830;2022-10-23T06:02:37;9.10;1.00
7214;DHT22;3648;50.614;13.830;2022-10-23T06:05:04;9.10;1.00
7214;DHT22;3648;50.614;13.830;2022-10-23T06:07:31;9.10;1.00
7214;DHT22;3648;50.614;13.830;2022-10-23T06:10:00;9.20;1.00
7214;DHT22;3648;50.614;13.830;2022-10-23T06:12:27;9.20;1.00
7214;DHT22;3648;50.614;13.830;2022-10-23T06:14:54;9.20;1.00
7214;DHT22;3648;50.614;13.830;2022-10-23T06:17:21;9.20;1.00
7214;DHT22;3648;50.614;13.830;2022-10-23T06:19:48;9.20;1.00
7214;DHT22;3648;50.614;13.830;2022-10-23T06:22:15;9.20;1.00
7214;DHT22;3648;50.614;13.830;2022-10-23T06:24:42;9.30;1.00
7214;DHT22;3648;50.614;13.830;2022-10-23T06:27:10;9.30;1.00
7214;DHT22;3648;50.614;13.830;2022-10-23T06:29:37;9.30;1.00
7214;DHT22;3648;50.614;13.830;2022-10-23T06:32:06;9.30;1.00
7214;DHT22;3648;50.614;13.830;2022-10-23T06:34:33;9.40;1.00
7214;DHT22;3648;50.614;13.830;2022-10-23T06:37:00;9.40;1.00
7214;DHT22;3648;50.614;13.830;2022-10-23T06:39:26;9.40;1.00
7214;DHT22;3648;50.614;13.830;2022-10-23T06:41:54;9.40;1.00
7214;DHT22;3648;50.614;13.830;2022-10-23T06:44:22;9.50;1.00
7214;DHT22;3648;50.614;13.830;2022-10-23T06:46:49;9.40;1.00
7214;DHT22;3648;50.614;13.830;2022-10-23T06:49:16;9.50;1.00
7214;DHT22;3648;50.614;13.830;2022-10-23T06:51:43;9.50;1.00
7214;DHT22;3648;50.614;13.830;2022-10-23T06:54:10;9.50;1.00
7214;DHT22;3648;50.614;13.830;2022-10-23T06:56:38;9.50;1.00
7214;DHT22;3648;50.614;13.830;2022-10-23T06:59:04;9.60;1.00
7214;DHT22;3648;50.614;13.830;2022-10-23T07:01:34;9.60;1.00
7214;DHT22;3648;50.614;13.830;2022-10-23T07:04:01;9.70;1.00
7214;DHT22;3648;50.614;13.830;2022-10-23T07:06:28;9.70;1.00
7214;DHT22;3648;50.614;13.830;2022-10-23T07:08:55;9.70;1.00
7214;DHT22;3648;50.614;13.830;2022-10-23T07:11:22;9.70;1.00
7214;DHT22;3648;50.614;13.830;2022-10-23T07:13:49;9.80;1.00
7214;DHT22;3648;50.614;13.830;2022-10-23T07:16:18;9.80;1.00
7214;DHT22;3648;50.614;13.830;2022-10-23T07:18:48;9.80;1.00
7214;DHT22;3648;50.614;13.830;2022-10-23T07:21:16;9.90;1.00
7214;DHT22;3648;50.614;13.830;2022-10-23T07:23:43;9.90;1.00
7214;DHT22;3648;50.614;13.830;2022-10-23T07:26:12;9.90;1.00
7214;DHT22;3648;50.614;13.830;2022-10-23T07:28:42;9.90;1.00
7214;DHT22;3648;50.614;13.830;2022-10-23T07:31:10;9.90;1.00
7214;DHT22;3648;50.614;13.830;2022-10-23T07:33:37;9.90;1.00
7214;DHT22;3648;50.614;13.830;2022-10-23T07:36:07;9.90;1.00
7214;DHT22;3648;50.614;13.830;2022-10-23T07:38:35;9.90;1.00
7214;DHT22;3648;50.614;13.830;2022-10-23T07:41:02;9.90;1.00
7214;DHT22;3648;50.614;13.830;2022-10-23T07:43:29;9.90;1.00
7214;DHT22;3648;50.614;13.830;2022-10-23T07:45:57;10.00;1.00
7214;DHT22;3648;50.614;13.830;2022-10-23T07:48:24;10.00;1.00
7214;DHT22;3648;50.614;13.830;2022-10-23T07:50:52;10.00;1.00
7214;DHT22;3648;50.614;13.830;2022-10-23T07:53:23;10.10;1.00
7214;DHT22;3648;50.614;13.830;2022-10-23T07:55:54;10.10;1.00
7214;DHT22;3648;50.614;13.830;2022-10-23T07:58:22;10.10;1.00
7214;DHT22;3648;50.614;13.830;2022-10-23T08:00:53;10.10;1.00
7214;DHT22;3648;50.614;13.830;2022-10-23T08:03:23;10.20;1.00
7214;DHT22;3648;50.614;13.830;2022-10-23T08:05:51;10.20;1.00
7214;DHT22;3648;50.614;13.830;2022-10-23T08:08:20;10.20;1.00
7214;DHT22;3648;50.614;13.830;2022-10-23T08:10:48;10.20;1.00
7214;DHT22;3648;50.614;13.830;2022-10-23T08:13:16;10.20;1.00
7214;DHT22;3648;50.614;13.830;2022-10-23T08:15:45;10.20;1.00
7214;DHT22;3648;50.614;13.830;2022-10-23T08:18:13;10.30;1.00
7214;DHT22;3648;50.614;13.830;2022-10-23T08:20:41;10.30;1.00
7214;DHT22;3648;50.614;13.830;2022-10-23T08:23:09;10.30;1.00
7214;DHT22;3648;50.614;13.830;2022-10-23T08:25:39;10.30;1.00
7214;DHT22;3648;50.614;13.830;2022-10-23T08:28:06;10.30;1.00
7214;DHT22;3648;50.614;13.830;2022-10-23T08:30:33;10.30;1.00
7214;DHT22;3648;50.614;13.830;2022-10-23T08:33:02;10.30;1.00
7214;DHT22;3648;50.614;13.830;2022-10-23T08:35:29;10.30;1.00
7214;DHT22;3648;50.614;13.830;2022-10-23T08:37:56;10.30;1.00
7214;DHT22;3648;50.614;13.830;2022-10-23T08:40:24;10.40;1.00
7214;DHT22;3648;50.614;13.830;2022-10-23T08:42:58;10.40;1.00
7214;DHT22;3648;50.614;13.830;2022-10-23T08:45:30;10.40;1.00
7214;DHT22;3648;50.614;13.830;2022-10-23T08:48:03;10.50;1.00
7214;DHT22;3648;50.614;13.830;2022-10-23T08:50:35;10.50;1.00
7214;DHT22;3648;50.614;13.830;2022-10-23T08:53:12;10.50;1.00
7214;DHT22;3648;50.614;13.830;2022-10-23T08:55:42;10.60;1.00
7214;DHT22;3648;50.614;13.830;2022-10-23T08:58:18;10.60;1.00
7214;DHT22;3648;50.614;13.830;2022-10-23T09:00:48;10.60;1.00
7214;DHT22;3648;50.614;13.830;2022-10-23T09:03:16;10.60;1.00
7214;DHT22;3648;50.614;13.830;2022-10-23T09:05:56;10.60;1.00
7214;DHT22;3648;50.614;13.830;2022-10-23T09:08:38;10.70;1.00
7214;DHT22;3648;50.614;13.830;2022-10-23T09:11:13;10.70;1.00
7214;DHT22;3648;50.614;13.830;2022-10-23T09:14:26;10.70;1.00
7214;DHT22;3648;50.614;13.830;2022-10-23T09:17:07;10.70;1.00
7214;DHT22;3648;50.614;13.830;2022-10-23T09:19:38;10.80;1.00
7214;DHT22;3648;50.614;13.830;2022-10-23T09:22:05;10.80;1.00
7214;DHT22;3648;50.614;13.830;2022-10-23T09:24:32;10.80;1.00
7214;DHT22;3648;50.614;13.830;2022-10-23T09:27:01;10.90;1.00
7214;DHT22;3648;50.614;13.830;2022-10-23T09:29:31;10.90;1.00
7214;DHT22;3648;50.614;13.830;2022-10-23T09:32:02;10.90;1.00
7214;DHT22;3648;50.614;13.830;2022-10-23T09:34:31;11.00;1.00
7214;DHT22;3648;50.614;13.830;2022-10-23T09:37:00;11.00;1.00
7214;DHT22;3648;50.614;13.830;2022-10-23T09:39:29;11.10;1.00
7214;DHT22;3648;50.614;13.830;2022-10-23T09:41:57;11.10;1.00
7214;DHT22;3648;50.614;13.830;2022-10-23T09:44:26;11.10;1.00
7214;DHT22;3648;50.614;13.830;2022-10-23T09:46:58;11.10;1.00
7214;DHT22;3648;50.614;13.830;2022-10-23T09:49:27;11.20;1.00
7214;DHT22;3648;50.614;13.830;2022-10-23T09:52:02;11.20;1.00
7214;DHT22;3648;50.614;13.830;2022-10-23T09:54:31;11.30;1.00
7214;DHT22;3648;50.614;13.830;2022-10-23T09:57:03;11.30;1.00
7214;DHT22;3648;50.614;13.830;2022-10-23T09:59:32;11.30;1.00
7214;DHT22;3648;50.614;13.830;2022-10-23T10:02:01;11.30;1.00
7214;DHT22;3648;50.614;13.830;2022-10-23T10:04:35;11.40;1.00
7214;DHT22;3648;50.614;13.830;2022-10-23T10:07:04;11.40;1.00
7214;DHT22;3648;50.614;13.830;2022-10-23T10:09:32;11.40;1.00
7214;DHT22;3648;50.614;13.830;2022-10-23T10:12:19;11.40;1.00
7214;DHT22;3648;50.614;13.830;2022-10-23T10:15:02;11.40;1.00
7214;DHT22;3648;50.614;13.830;2022-10-23T10:17:37;11.50;1.00
7214;DHT22;3648;50.614;13.830;2022-10-23T10:20:18;11.50;1.00
7214;DHT22;3648;50.614;13.830;2022-10-23T10:22:52;11.60;1.00
7214;DHT22;3648;50.614;13.830;2022-10-23T10:25:24;11.60;1.00
7214;DHT22;3648;50.614;13.830;2022-10-23T10:28:03;11.60;1.00
7214;DHT22;3648;50.614;13.830;2022-10-23T10:30:38;11.70;1.00
7214;DHT22;3648;50.614;13.830;2022-10-23T10:33:15;11.70;1.00
7214;DHT22;3648;50.614;13.830;2022-10-23T10:35:51;11.70;1.00
7214;DHT22;3648;50.614;13.830;2022-10-23T10:38:43;11.80;1.00
7214;DHT22;3648;50.614;13.830;2022-10-23T10:41:25;11.80;1.00
7214;DHT22;3648;50.614;13.830;2022-10-23T10:44:03;11.90;1.00
7214;DHT22;3648;50.614;13.830;2022-10-23T10:46:38;11.90;1.00
7214;DHT22;3648;50.614;13.830;2022-10-23T10:49:14;11.90;1.00
7214;DHT22;3648;50.614;13.830;2022-10-23T10:51:48;11.90;1.00
7214;DHT22;3648;50.614;13.830;2022-10-23T10:54:27;11.90;1.00
7214;DHT22;3648;50.614;13.830;2022-10-23T10:56:59;11.90;1.00
7214;DHT22;3648;50.614;13.830;2022-10-23T10:59:30;11.90;1.00
7214;DHT22;3648;50.614;13.830;2022-10-23T11:02:14;11.90;1.00
7214;DHT22;3648;50.614;13.830;2022-10-23T11:04:50;11.90;1.00
7214;DHT22;3648;50.614;13.830;2022-10-23T11:07:20;11.90;1.00
7214;DHT22;3648;50.614;13.830;2022-10-23T11:09:48;11.90;1.00
7214;DHT22;3648;50.614;13.830;2022-10-23T11:12:21;11.90;1.00
7214;DHT22;3648;50.614;13.830;2022-10-23T11:14:49;12.00;1.00
7214;DHT22;3648;50.614;13.830;2022-10-23T11:17:19;12.00;1.00
7214;DHT22;3648;50.614;13.830;2022-10-23T11:19:55;12.00;1.00
7214;DHT22;3648;50.614;13.830;2022-10-23T11:22:29;12.00;1.00
7214;DHT22;3648;50.614;13.830;2022-10-23T11:25:38;12.00;1.00
7214;DHT22;3648;50.614;13.830;2022-10-23T11:28:18;12.00;1.00
7214;DHT22;3648;50.614;13.830;2022-10-23T11:31:02;12.00;1.00
7214;DHT22;3648;50.614;13.830;2022-10-23T11:36:42;12.10;1.00
7214;DHT22;3648;50.614;13.830;2022-10-23T11:39:19;12.10;1.00
7214;DHT22;3648;50.614;13.830;2022-10-23T11:41:52;12.20;1.00
7214;DHT22;3648;50.614;13.830;2022-10-23T11:44:38;12.20;1.00
7214;DHT22;3648;50.614;13.830;2022-10-23T11:47:27;12.30;1.00
7214;DHT22;3648;50.614;13.830;2022-10-23T11:50:22;12.20;1.00
7214;DHT22;3648;50.614;13.830;2022-10-23T11:53:22;12.30;1.00
7214;DHT22;3648;50.614;13.830;2022-10-23T11:55:58;12.30;1.00
7214;DHT22;3648;50.614;13.830;2022-10-23T11:58:27;12.30;1.00
7214;DHT22;3648;50.614;13.830;2022-10-23T12:01:02;12.20;1.00
7214;DHT22;3648;50.614;13.830;2022-10-23T12:03:40;12.30;1.00
7214;DHT22;3648;50.614;13.830;2022-10-23T12:06:21;12.20;1.00
7214;DHT22;3648;50.614;13.830;2022-10-23T12:08:54;12.20;1.00
7214;DHT22;3648;50.614;13.830;2022-10-23T12:11:38;12.20;1.00
7214;DHT22;3648;50.614;13.830;2022-10-23T12:14:29;12.20;1.00
7214;DHT22;3648;50.614;13.830;2022-10-23T12:16:56;12.20;1.00
7214;DHT22;3648;50.614;13.830;2022-10-23T12:19:26;12.20;1.00
7214;DHT22;3648;50.614;13.830;2022-10-23T12:21:55;12.20;1.00
7214;DHT22;3648;50.614;13.830;2022-10-23T12:24:41;12.20;1.00
7214;DHT22;3648;50.614;13.830;2022-10-23T12:27:24;12.20;1.00
7214;DHT22;3648;50.614;13.830;2022-10-23T12:30:12;12.20;1.00
7214;DHT22;3648;50.614;13.830;2022-10-23T12:32:57;12.20;1.00
7214;DHT22;3648;50.614;13.830;2022-10-23T12:38:42;12.20;1.00
7214;DHT22;3648;50.614;13.830;2022-10-23T12:41:13;12.20;1.00
7214;DHT22;3648;50.614;13.830;2022-10-23T12:43:44;12.20;1.00
7214;DHT22;3648;50.614;13.830;2022-10-23T12:46:29;12.20;1.00
7214;DHT22;3648;50.614;13.830;2022-10-23T12:48:58;12.30;1.00
7214;DHT22;3648;50.614;13.830;2022-10-23T12:51:28;12.30;1.00
7214;DHT22;3648;50.614;13.830;2022-10-23T12:53:55;12.30;1.00
7214;DHT22;3648;50.614;13.830;2022-10-23T12:56:25;12.30;1.00
7214;DHT22;3648;50.614;13.830;2022-10-23T12:58:54;12.30;1.00
7214;DHT22;3648;50.614;13.830;2022-10-23T13:01:24;12.40;1.00
7214;DHT22;3648;50.614;13.830;2022-10-23T13:03:57;12.40;1.00
7214;DHT22;3648;50.614;13.830;2022-10-23T13:06:26;12.50;1.00
7214;DHT22;3648;50.614;13.830;2022-10-23T13:08:53;12.50;1.00
7214;DHT22;3648;50.614;13.830;2022-10-23T13:11:21;12.50;1.00
7214;DHT22;3648;50.614;13.830;2022-10-23T13:13:50;12.50;1.00
7214;DHT22;3648;50.614;13.830;2022-10-23T13:16:20;12.50;1.00
7214;DHT22;3648;50.614;13.830;2022-10-23T13:18:47;12.50;1.00
7214;DHT22;3648;50.614;13.830;2022-10-23T13:21:17;12.50;1.00
7214;DHT22;3648;50.614;13.830;2022-10-23T13:23:45;12.50;1.00
7214;DHT22;3648;50.614;13.830;2022-10-23T13:26:30;12.50;1.00
7214;DHT22;3648;50.614;13.830;2022-10-23T13:29:00;12.50;1.00
7214;DHT22;3648;50.614;13.830;2022-10-23T13:31:32;12.50;1.00
7214;DHT22;3648;50.614;13.830;2022-10-23T13:34:11;12.50;1.00
7214;DHT22;3648;50.614;13.830;2022-10-23T13:36:49;12.40;1.00
7214;DHT22;3648;50.614;13.830;2022-10-23T13:39:21;12.40;1.00
7214;DHT22;3648;50.614;13.830;2022-10-23T13:41:48;12.40;1.00
7214;DHT22;3648;50.614;13.830;2022-10-23T13:44:18;12.40;1.00
7214;DHT22;3648;50.614;13.830;2022-10-23T13:46:45;12.40;1.00
7214;DHT22;3648;50.614;13.830;2022-10-23T13:49:14;12.40;1.00
7214;DHT22;3648;50.614;13.830;2022-10-23T13:51:43;12.40;1.00
7214;DHT22;3648;50.614;13.830;2022-10-23T13:54:14;12.40;1.00
7214;DHT22;3648;50.614;13.830;2022-10-23T13:56:42;12.40;1.00
7214;DHT22;3648;50.614;13.830;2022-10-23T13:59:10;12.40;1.00
7214;DHT22;3648;50.614;13.830;2022-10-23T14:01:39;12.40;1.00
7214;DHT22;3648;50.614;13.830;2022-10-23T14:04:07;12.40;1.00
7214;DHT22;3648;50.614;13.830;2022-10-23T14:06:36;12.30;1.00
7214;DHT22;3648;50.614;13.830;2022-10-23T14:09:04;12.30;1.00
7214;DHT22;3648;50.614;13.830;2022-10-23T14:11:31;12.30;1.00
7214;DHT22;3648;50.614;13.830;2022-10-23T14:13:59;12.30;1.00
7214;DHT22;3648;50.614;13.830;2022-10-23T14:16:26;12.30;1.00
7214;DHT22;3648;50.614;13.830;2022-10-23T14:18:55;12.30;1.00
7214;DHT22;3648;50.614;13.830;2022-10-23T14:21:23;12.30;1.00
7214;DHT22;3648;50.614;13.830;2022-10-23T14:23:51;12.40;1.00
7214;DHT22;3648;50.614;13.830;2022-10-23T14:26:21;12.30;1.00
7214;DHT22;3648;50.614;13.830;2022-10-23T14:28:51;12.30;1.00
7214;DHT22;3648;50.614;13.830;2022-10-23T14:31:19;12.40;1.00
7214;DHT22;3648;50.614;13.830;2022-10-23T14:33:50;12.30;1.00
7214;DHT22;3648;50.614;13.830;2022-10-23T14:36:20;12.40;1.00
7214;DHT22;3648;50.614;13.830;2022-10-23T14:38:48;12.30;1.00
7214;DHT22;3648;50.614;13.830;2022-10-23T14:41:16;12.40;1.00
7214;DHT22;3648;50.614;13.830;2022-10-23T14:43:44;12.40;1.00
7214;DHT22;3648;50.614;13.830;2022-10-23T14:46:18;12.40;1.00
7214;DHT22;3648;50.614;13.830;2022-10-23T14:49:01;12.40;1.00
7214;DHT22;3648;50.614;13.830;2022-10-23T14:51:31;12.40;1.00
7214;DHT22;3648;50.614;13.830;2022-10-23T14:54:02;12.40;1.00
7214;DHT22;3648;50.614;13.830;2022-10-23T14:56:31;12.40;1.00
7214;DHT22;3648;50.614;13.830;2022-10-23T14:59:01;12.40;1.00
7214;DHT22;3648;50.614;13.830;2022-10-23T15:01:30;12.40;1.00
7214;DHT22;3648;50.614;13.830;2022-10-23T15:04:01;12.40;1.00
7214;DHT22;3648;50.614;13.830;2022-10-23T15:06:29;12.40;1.00
7214;DHT22;3648;50.614;13.830;2022-10-23T15:08:56;12.30;1.00
7214;DHT22;3648;50.614;13.830;2022-10-23T15:11:25;12.30;1.00
7214;DHT22;3648;50.614;13.830;2022-10-23T15:13:57;12.30;1.00
7214;DHT22;3648;50.614;13.830;2022-10-23T15:16:25;12.30;1.00
7214;DHT22;3648;50.614;13.830;2022-10-23T15:18:53;12.30;1.00
7214;DHT22;3648;50.614;13.830;2022-10-23T15:21:28;12.30;1.00
7214;DHT22;3648;50.614;13.830;2022-10-23T15:23:55;12.30;1.00
7214;DHT22;3648;50.614;13.830;2022-10-23T15:26:23;12.30;1.00
7214;DHT22;3648;50.614;13.830;2022-10-23T15:29:10;12.30;1.00
7214;DHT22;3648;50.614;13.830;2022-10-23T15:31:43;12.30;1.00
7214;DHT22;3648;50.614;13.830;2022-10-23T15:34:13;12.30;1.00
7214;DHT22;3648;50.614;13.830;2022-10-23T15:36:42;12.30;1.00
7214;DHT22;3648;50.614;13.830;2022-10-23T15:39:10;12.30;1.00
7214;DHT22;3648;50.614;13.830;2022-10-23T15:41:39;12.30;1.00
7214;DHT22;3648;50.614;13.830;2022-10-23T15:44:10;12.30;1.00
7214;DHT22;3648;50.614;13.830;2022-10-23T15:46:37;12.30;1.00
7214;DHT22;3648;50.614;13.830;2022-10-23T15:49:05;12.20;1.00
7214;DHT22;3648;50.614;13.830;2022-10-23T15:51:33;12.20;1.00
7214;DHT22;3648;50.614;13.830;2022-10-23T15:54:03;12.20;1.00
7214;DHT22;3648;50.614;13.830;2022-10-23T15:56:30;12.20;1.00
7214;DHT22;3648;50.614;13.830;2022-10-23T15:58:57;12.20;1.00
7214;DHT22;3648;50.614;13.830;2022-10-23T16:01:24;12.20;1.00
7214;DHT22;3648;50.614;13.830;2022-10-23T16:03:51;12.20;1.00
7214;DHT22;3648;50.614;13.830;2022-10-23T16:06:19;12.20;1.00
7214;DHT22;3648;50.614;13.830;2022-10-23T16:08:47;12.20;1.00
7214;DHT22;3648;50.614;13.830;2022-10-23T16:11:17;12.20;1.00
7214;DHT22;3648;50.614;13.830;2022-10-23T16:13:44;12.20;1.00
7214;DHT22;3648;50.614;13.830;2022-10-23T16:16:12;12.10;1.00
7214;DHT22;3648;50.614;13.830;2022-10-23T16:18:39;12.10;1.00
7214;DHT22;3648;50.614;13.830;2022-10-23T16:21:16;12.10;1.00
7214;DHT22;3648;50.614;13.830;2022-10-23T16:23:43;12.10;1.00
7214;DHT22;3648;50.614;13.830;2022-10-23T16:26:10;12.10;1.00
7214;DHT22;3648;50.614;13.830;2022-10-23T16:28:39;12.10;1.00
7214;DHT22;3648;50.614;13.830;2022-10-23T16:31:08;12.10;1.00
7214;DHT22;3648;50.614;13.830;2022-10-23T16:33:36;12.10;1.00
7214;DHT22;3648;50.614;13.830;2022-10-23T16:36:03;12.10;1.00
7214;DHT22;3648;50.614;13.830;2022-10-23T16:38:31;12.10;1.00